createdAt,value
2023-05-21T00:00:30.803Z,3.55
2023-05-21T00:02:59.356Z,3.33
2023-05-21T00:05:26.959Z,3.85
2023-05-21T00:07:55.042Z,3.53
2023-05-21T00:10:22.520Z,3.70
2023-05-21T00:12:49.910Z,3.50
2023-05-21T00:15:17.233Z,3.63
2023-05-21T00:17:46.176Z,3.70
2023-05-21T00:20:13.600Z,3.90
2023-05-21T00:22:42.430Z,3.40
2023-05-21T00:25:10.681Z,3.88
2023-05-21T00:27:38.327Z,3.88
2023-05-21T00:30:06.373Z,4.50
2023-05-21T00:32:34.423Z,3.70
2023-05-21T00:35:01.871Z,3.50
2023-05-21T00:37:34.169Z,3.65
2023-05-21T00:40:02.200Z,4.30
2023-05-21T00:42:30.746Z,3.58
2023-05-21T00:44:58.678Z,3.38
2023-05-21T00:47:29.614Z,3.38
2023-05-21T00:49:57.010Z,3.72
2023-05-21T00:52:27.088Z,3.78
2023-05-21T00:54:54.545Z,3.70
2023-05-21T00:57:25.278Z,3.65
2023-05-21T00:59:53.215Z,3.53
2023-05-21T01:02:24.333Z,3.28
2023-05-21T01:04:54.648Z,3.28
2023-05-21T01:07:22.035Z,3.92
2023-05-21T01:09:49.916Z,3.55
2023-05-21T01:12:17.241Z,3.67
2023-05-21T01:14:45.040Z,3.72
2023-05-21T01:17:13.082Z,3.88
2023-05-21T01:19:40.510Z,3.80
2023-05-21T01:22:08.057Z,4.07
2023-05-21T01:24:35.488Z,3.55
2023-05-21T01:27:03.432Z,3.65
2023-05-21T01:29:31.427Z,3.83
2023-05-21T01:32:07.359Z,3.85
2023-05-21T01:34:54.533Z,4.13
2023-05-21T01:37:35.181Z,4.30
2023-05-21T01:40:18.285Z,3.83
2023-05-21T01:42:46.064Z,4.03
2023-05-21T01:45:14.685Z,4.10
2023-05-21T01:47:42.388Z,4.15
2023-05-21T01:50:10.140Z,4.60
2023-05-21T01:52:37.595Z,4.63
2023-05-21T01:55:05.944Z,4.40
2023-05-21T01:57:33.320Z,3.88
2023-05-21T02:00:01.194Z,3.90
2023-05-21T02:02:28.611Z,4.05
2023-05-21T02:04:56.186Z,3.72
2023-05-21T02:07:24.668Z,3.50
2023-05-21T02:09:52.138Z,3.65
2023-05-21T02:12:19.631Z,3.60
2023-05-21T02:14:50.389Z,3.63
2023-05-21T02:17:17.721Z,3.80
2023-05-21T02:19:44.987Z,4.13
2023-05-21T02:22:12.846Z,3.72
2023-05-21T02:24:40.227Z,3.22
2023-05-21T02:27:07.493Z,3.78
2023-05-21T02:29:34.872Z,3.70
2023-05-21T02:32:02.205Z,3.42
2023-05-21T02:34:32.348Z,3.60
2023-05-21T02:36:59.634Z,3.80
2023-05-21T02:39:26.987Z,4.28
2023-05-21T02:41:54.332Z,4.30
2023-05-21T02:44:24.075Z,3.75
2023-05-21T02:46:51.390Z,4.03
2023-05-21T02:49:18.717Z,4.10
2023-05-21T02:51:45.972Z,3.45
2023-05-21T02:54:14.754Z,4.60
2023-05-21T02:56:42.136Z,3.58
2023-05-21T02:59:09.406Z,3.45
2023-05-21T03:01:37.071Z,4.05
2023-05-21T03:04:04.549Z,3.45
2023-05-21T03:06:32.530Z,3.42
2023-05-21T03:08:59.930Z,3.67
2023-05-21T03:11:27.182Z,6.72
2023-05-21T03:13:54.668Z,3.45
2023-05-21T03:16:22.564Z,4.30
2023-05-21T03:18:50.096Z,3.40
2023-05-21T03:21:17.777Z,3.33
2023-05-21T03:23:45.048Z,3.72
2023-05-21T03:26:14.097Z,3.67
2023-05-21T03:28:41.751Z,3.80
2023-05-21T03:31:09.143Z,3.53
2023-05-21T03:33:36.624Z,3.35
2023-05-21T03:36:04.149Z,6.78
2023-05-21T03:38:31.465Z,4.13
2023-05-21T03:40:58.754Z,3.40
2023-05-21T03:43:26.127Z,4.18
2023-05-21T03:45:54.641Z,3.03
2023-05-21T03:48:22.051Z,6.03
2023-05-21T03:50:49.544Z,7.10
2023-05-21T03:53:17.106Z,4.60
2023-05-21T03:55:44.389Z,5.93
2023-05-21T03:58:11.680Z,5.97
2023-05-21T04:00:39.057Z,5.05
2023-05-21T04:03:07.226Z,4.97
2023-05-21T04:05:35.013Z,4.05
2023-05-21T04:08:02.637Z,5.00
2023-05-21T04:10:30.574Z,10.40
2023-05-21T04:12:58.150Z,6.55
2023-05-21T04:15:27.613Z,4.72
2023-05-21T04:17:54.967Z,6.30
2023-05-21T04:20:22.370Z,5.30
2023-05-21T04:22:49.665Z,4.95
2023-05-21T04:25:16.988Z,4.68
2023-05-21T04:27:47.800Z,6.03
2023-05-21T04:30:15.239Z,8.02
2023-05-21T04:32:46.054Z,7.15
2023-05-21T04:35:15.290Z,4.65
2023-05-21T04:37:42.834Z,4.90
2023-05-21T04:40:10.488Z,4.47
2023-05-21T04:42:39.083Z,7.85
2023-05-21T04:45:06.678Z,7.45
2023-05-21T04:47:35.463Z,7.05
2023-05-21T04:50:04.517Z,3.83
2023-05-21T04:52:32.074Z,4.40
2023-05-21T04:54:59.348Z,9.68
2023-05-21T04:57:28.252Z,5.97
2023-05-21T04:59:56.370Z,3.28
2023-05-21T05:02:23.692Z,3.28
2023-05-21T05:04:51.048Z,3.75
2023-05-21T05:07:18.339Z,3.30
2023-05-21T05:09:45.685Z,3.53
2023-05-21T05:12:13.087Z,3.40
2023-05-21T05:14:40.492Z,9.20
2023-05-21T05:17:09.976Z,4.50
2023-05-21T05:19:37.261Z,8.15
2023-05-21T05:22:04.760Z,13.60
2023-05-21T05:24:33.258Z,15.55
2023-05-21T05:27:01.007Z,8.82
2023-05-21T05:29:29.178Z,7.15
2023-05-21T05:31:56.533Z,4.43
2023-05-21T05:34:23.896Z,11.57
2023-05-21T05:36:51.143Z,5.57
2023-05-21T05:39:18.431Z,5.32
2023-05-21T05:41:45.753Z,5.18
2023-05-21T05:44:13.086Z,4.85
2023-05-21T05:46:40.824Z,6.75
2023-05-21T05:49:08.149Z,12.30
2023-05-21T05:51:36.268Z,8.88
2023-05-21T05:54:03.564Z,19.65
2023-05-21T05:56:31.374Z,17.83
2023-05-21T05:58:59.235Z,20.42
2023-05-21T06:01:26.486Z,8.90
2023-05-21T06:03:53.830Z,16.30
2023-05-21T06:06:21.136Z,11.70
2023-05-21T06:08:48.552Z,4.40
2023-05-21T06:11:17.282Z,4.00
2023-05-21T06:13:46.177Z,13.40
2023-05-21T06:16:13.751Z,13.95
2023-05-21T06:18:41.088Z,17.65
2023-05-21T06:21:08.550Z,12.18
2023-05-21T06:23:37.784Z,6.70
2023-05-21T06:26:05.168Z,5.07
2023-05-21T06:28:33.075Z,18.40
2023-05-21T06:31:00.480Z,4.57
2023-05-21T06:33:28.000Z,8.55
2023-05-21T06:35:55.568Z,12.00
2023-05-21T06:38:23.867Z,18.05
2023-05-21T06:40:51.170Z,14.13
2023-05-21T06:43:18.396Z,9.77
2023-05-21T06:45:46.015Z,4.63
2023-05-21T06:48:13.675Z,4.28
2023-05-21T06:50:41.095Z,4.60
2023-05-21T06:53:08.428Z,9.38
2023-05-21T06:55:37.445Z,7.40
2023-05-21T06:58:05.089Z,3.60
2023-05-21T07:00:33.922Z,3.85
2023-05-21T07:03:01.264Z,12.27
2023-05-21T07:05:28.660Z,16.92
2023-05-21T07:07:55.896Z,6.20
2023-05-21T07:10:23.144Z,5.97
2023-05-21T07:12:50.734Z,8.77
2023-05-21T07:15:18.292Z,5.63
2023-05-21T07:17:45.972Z,5.10
2023-05-21T07:20:13.757Z,8.63
2023-05-21T07:22:42.922Z,8.70
2023-05-21T07:25:10.456Z,10.13
2023-05-21T07:27:37.993Z,7.82
2023-05-21T07:30:05.917Z,5.50
2023-05-21T07:32:34.678Z,5.03
2023-05-21T07:35:02.153Z,8.00
2023-05-21T07:37:29.777Z,18.25
2023-05-21T07:39:57.591Z,9.00
2023-05-21T07:42:25.657Z,18.42
2023-05-21T07:44:53.014Z,5.90
2023-05-21T07:47:23.489Z,5.28
2023-05-21T07:49:50.974Z,8.63
2023-05-21T07:52:18.264Z,8.73
2023-05-21T07:54:45.719Z,11.30
2023-05-21T07:57:12.965Z,6.47
2023-05-21T07:59:40.255Z,9.32
2023-05-21T08:02:07.680Z,4.70
2023-05-21T08:04:37.016Z,11.23
2023-05-21T08:07:06.109Z,13.07
2023-05-21T08:09:33.801Z,8.88
2023-05-21T08:12:01.453Z,8.35
2023-05-21T08:14:30.604Z,5.30
2023-05-21T08:16:58.451Z,5.30
2023-05-21T08:19:25.921Z,12.30
2023-05-21T08:21:53.294Z,12.02
2023-05-21T08:24:20.923Z,16.85
2023-05-21T08:26:49.657Z,9.63
2023-05-21T08:29:17.052Z,9.35
2023-05-21T08:31:45.488Z,13.10
2023-05-21T08:34:13.020Z,7.85
2023-05-21T08:36:43.244Z,4.70
2023-05-21T08:39:10.537Z,4.78
2023-05-21T08:41:38.178Z,10.93
2023-05-21T08:44:05.634Z,12.05
2023-05-21T08:46:36.594Z,5.10
2023-05-21T08:49:03.875Z,20.50
2023-05-21T08:51:32.396Z,9.32
2023-05-21T08:53:59.986Z,21.38
2023-05-21T08:56:27.723Z,11.85
2023-05-21T08:58:55.089Z,4.60
2023-05-21T09:01:24.785Z,5.25
2023-05-21T09:03:54.548Z,5.20
2023-05-21T09:06:26.382Z,8.55
2023-05-21T09:09:00.448Z,12.80
2023-05-21T09:11:29.564Z,18.10
2023-05-21T09:13:57.512Z,8.65
2023-05-21T09:16:24.856Z,9.52
2023-05-21T09:18:52.173Z,4.50
2023-05-21T09:21:29.783Z,10.77
2023-05-21T09:23:57.574Z,7.90
2023-05-21T09:26:25.250Z,6.57
2023-05-21T09:28:52.621Z,5.53
2023-05-21T09:31:19.989Z,6.43
2023-05-21T09:33:50.020Z,12.52
2023-05-21T09:36:20.609Z,11.10
2023-05-21T09:38:48.738Z,5.10
2023-05-21T09:41:19.873Z,10.05
2023-05-21T09:43:48.824Z,4.30
2023-05-21T09:46:16.137Z,4.22
2023-05-21T09:48:43.758Z,4.20
2023-05-21T09:51:20.488Z,4.78
2023-05-21T09:53:57.952Z,4.40
2023-05-21T09:56:30.832Z,4.13
2023-05-21T09:59:00.441Z,6.00
2023-05-21T10:01:28.815Z,12.27
2023-05-21T10:03:57.656Z,11.13
2023-05-21T10:06:28.920Z,15.10
2023-05-21T10:08:57.014Z,4.05
2023-05-21T10:11:27.121Z,5.13
2023-05-21T10:14:01.208Z,7.57
2023-05-21T10:16:28.751Z,9.57
2023-05-21T10:18:57.648Z,4.45
2023-05-21T10:21:24.994Z,4.50
2023-05-21T10:23:52.391Z,7.07
2023-05-21T10:26:21.597Z,5.45
2023-05-21T10:28:52.231Z,9.50
2023-05-21T10:31:19.743Z,4.10
2023-05-21T10:33:47.710Z,3.78
2023-05-21T10:36:17.393Z,13.05
2023-05-21T10:38:44.847Z,14.70
2023-05-21T10:41:12.234Z,19.35
2023-05-21T10:43:58.613Z,10.60
2023-05-21T10:46:28.623Z,4.47
2023-05-21T10:49:22.694Z,13.32
2023-05-21T10:52:17.960Z,7.22
2023-05-21T10:55:12.982Z,7.75
2023-05-21T10:58:02.475Z,8.88
2023-05-21T11:00:31.623Z,13.13
2023-05-21T11:02:59.452Z,7.85
2023-05-21T11:05:57.688Z,11.60
2023-05-21T11:08:26.472Z,4.43
2023-05-21T11:10:54.865Z,13.27
2023-05-21T11:13:22.277Z,18.90
2023-05-21T11:16:08.131Z,15.88
2023-05-21T11:18:35.548Z,11.27
2023-05-21T11:21:22.436Z,4.30
2023-05-21T11:23:59.355Z,4.32
2023-05-21T11:26:28.745Z,4.82
2023-05-21T11:29:05.188Z,4.28
2023-05-21T11:31:39.559Z,9.02
2023-05-21T11:34:29.012Z,5.80
2023-05-21T11:37:18.295Z,4.22
2023-05-21T11:39:45.747Z,10.32
2023-05-21T11:42:13.485Z,7.18
2023-05-21T11:44:41.600Z,4.22
2023-05-21T11:47:10.112Z,8.77
2023-05-21T11:49:37.555Z,5.00
2023-05-21T11:52:06.413Z,4.50
2023-05-21T11:54:36.844Z,15.60
2023-05-21T11:57:07.966Z,7.75
2023-05-21T11:59:35.945Z,16.52
2023-05-21T12:02:03.961Z,13.90
2023-05-21T12:04:32.124Z,19.90
2023-05-21T12:06:59.407Z,9.65
2023-05-21T12:09:26.884Z,17.67
2023-05-21T12:11:54.247Z,21.33
2023-05-21T12:14:21.889Z,12.00
2023-05-21T12:16:49.213Z,14.50
2023-05-21T12:19:17.893Z,12.88
2023-05-21T12:21:45.350Z,7.03
2023-05-21T12:24:12.825Z,12.85
2023-05-21T12:26:42.072Z,4.35
2023-05-21T12:29:09.334Z,4.70
2023-05-21T12:31:48.282Z,15.45
2023-05-21T12:34:18.745Z,14.15
2023-05-21T12:36:48.261Z,22.80
2023-05-21T12:39:15.627Z,14.35
2023-05-21T12:41:43.812Z,11.77
2023-05-21T12:44:12.127Z,13.25
2023-05-21T12:46:39.513Z,9.57
2023-05-21T12:49:06.868Z,7.93
2023-05-21T12:51:39.992Z,19.27
2023-05-21T12:54:13.035Z,11.02
2023-05-21T12:56:46.583Z,9.88
2023-05-21T12:59:15.522Z,7.72
2023-05-21T13:01:42.964Z,8.15
2023-05-21T13:04:10.305Z,10.70
2023-05-21T13:06:44.374Z,21.20
2023-05-21T13:09:11.783Z,14.75
2023-05-21T13:11:39.040Z,5.32
2023-05-21T13:14:06.411Z,4.53
2023-05-21T13:16:33.915Z,8.02
2023-05-21T13:19:01.392Z,12.05
2023-05-21T13:21:28.707Z,3.67
2023-05-21T13:23:55.983Z,5.50
2023-05-21T13:26:23.334Z,8.45
2023-05-21T13:28:50.688Z,6.57
2023-05-21T13:31:18.207Z,4.22
2023-05-21T13:33:45.586Z,4.10
2023-05-21T14:11:42.377Z,4.97
2023-05-21T14:14:09.753Z,12.05
2023-05-21T14:16:37.266Z,9.10
2023-05-21T14:19:04.806Z,7.82
2023-05-21T14:21:32.170Z,5.88
2023-05-21T14:23:59.489Z,5.30
2023-05-21T14:26:28.016Z,5.20
2023-05-21T14:28:55.445Z,4.35
2023-05-21T14:31:23.406Z,5.78
2023-05-21T14:33:51.100Z,4.03
2023-05-21T14:36:18.507Z,6.78
2023-05-21T14:38:46.533Z,5.10
2023-05-21T14:41:13.914Z,6.88
2023-05-21T14:43:41.366Z,4.90
2023-05-21T14:46:08.815Z,5.20
2023-05-21T14:48:36.380Z,3.92
2023-05-21T14:51:03.889Z,4.20
2023-05-21T14:53:32.391Z,5.03
2023-05-21T14:55:59.746Z,4.95
2023-05-21T14:58:27.063Z,5.53
2023-05-21T15:00:54.428Z,4.97
2023-05-21T15:03:21.865Z,4.82
2023-05-21T15:05:49.320Z,4.78
2023-05-21T15:08:16.674Z,4.60
2023-05-21T15:10:44.080Z,4.82
2023-05-21T15:13:11.579Z,4.40
2023-05-21T15:15:40.574Z,5.15
2023-05-21T15:18:08.175Z,4.35
2023-05-21T15:20:35.562Z,4.85
2023-05-21T15:25:33.463Z,4.65
2023-05-21T15:28:00.874Z,4.90
2023-05-21T15:30:28.275Z,4.10
2023-05-21T15:32:55.718Z,3.83
2023-05-21T15:35:23.319Z,4.32
2023-05-21T15:37:50.829Z,4.65
2023-05-21T15:40:18.513Z,4.43
2023-05-21T15:42:45.895Z,4.15
2023-05-21T15:45:13.613Z,3.92
2023-05-21T15:47:42.842Z,4.05
2023-05-21T15:50:12.151Z,4.30
2023-05-21T15:52:41.578Z,4.13
2023-05-21T15:55:09.472Z,4.78
2023-05-21T15:57:37.648Z,3.47
2023-05-21T16:00:06.356Z,4.25
2023-05-21T16:02:34.232Z,4.03
2023-05-21T16:05:01.749Z,4.18
2023-05-21T16:07:29.181Z,4.25
2023-05-21T16:09:56.961Z,4.35
2023-05-21T16:12:24.341Z,4.40
2023-05-21T16:14:51.820Z,3.95
2023-05-21T16:17:22.221Z,4.47
2023-05-21T16:19:49.634Z,4.95
2023-05-21T16:22:17.268Z,5.32
2023-05-21T16:24:45.025Z,5.18
2023-05-21T16:27:12.829Z,5.43
2023-05-21T16:29:41.091Z,5.60
2023-05-21T16:32:09.737Z,5.55
2023-05-21T16:34:37.539Z,4.88
2023-05-21T16:37:05.040Z,5.30
2023-05-21T16:39:34.423Z,4.70
2023-05-21T16:42:01.876Z,4.30
2023-05-21T16:44:29.389Z,4.45
2023-05-21T16:46:56.726Z,4.15
2023-05-21T16:49:24.070Z,4.22
2023-05-21T16:51:51.498Z,4.65
2023-05-21T16:54:18.902Z,4.40
2023-05-21T16:56:46.192Z,4.20
2023-05-21T16:59:13.698Z,5.10
2023-05-21T17:01:41.074Z,5.28
2023-05-21T17:04:08.670Z,4.80
2023-05-21T17:06:36.167Z,5.32
2023-05-21T17:09:04.211Z,5.18
2023-05-21T17:11:31.708Z,4.43
2023-05-21T17:13:59.265Z,4.55
2023-05-21T17:16:26.747Z,4.95
2023-05-21T17:18:54.574Z,4.07
2023-05-21T17:21:23.576Z,4.22
2023-05-21T17:23:50.995Z,4.80
2023-05-21T17:26:18.326Z,5.25
2023-05-21T17:28:45.933Z,4.82
2023-05-21T17:31:13.356Z,5.68
2023-05-21T17:33:41.820Z,6.05
2023-05-21T17:36:09.148Z,7.07
2023-05-21T17:38:36.870Z,6.28
2023-05-21T17:41:04.507Z,6.82
2023-05-21T17:43:32.100Z,6.97
2023-05-21T17:45:59.476Z,6.95
2023-05-21T17:48:26.756Z,6.78
2023-05-21T17:50:54.022Z,6.95
2023-05-21T17:53:21.378Z,6.50
2023-05-21T17:55:48.845Z,6.38
2023-05-21T17:58:16.775Z,7.60
2023-05-21T18:00:44.204Z,6.18
2023-05-21T18:03:12.032Z,6.00
2023-05-21T18:05:40.314Z,6.32
2023-05-21T18:08:10.161Z,6.78
2023-05-21T18:10:37.595Z,6.28
2023-05-21T18:13:05.035Z,6.10
2023-05-21T18:15:33.495Z,6.72
2023-05-21T18:18:00.736Z,7.55
2023-05-21T18:20:28.086Z,8.45
2023-05-21T18:22:55.863Z,8.52
2023-05-21T18:25:23.205Z,9.00
2023-05-21T18:27:50.556Z,8.15
2023-05-21T18:30:18.680Z,8.90
2023-05-21T18:32:46.048Z,8.27
2023-05-21T18:35:15.776Z,7.97
2023-05-21T18:37:45.608Z,8.53
2023-05-21T18:40:13.327Z,8.10
2023-05-21T18:42:41.364Z,7.78
2023-05-21T18:45:10.297Z,7.68
2023-05-21T18:47:40.303Z,7.90
2023-05-21T18:50:09.669Z,6.93
2023-05-21T18:52:37.074Z,7.82
2023-05-21T18:55:06.042Z,7.53
2023-05-21T18:57:34.695Z,7.07
2023-05-21T19:00:02.117Z,6.68
2023-05-21T19:02:30.032Z,7.20
2023-05-21T19:04:57.351Z,7.20
2023-05-21T19:07:24.860Z,6.60
2023-05-21T19:09:52.824Z,6.55
2023-05-21T19:12:23.675Z,6.15
2023-05-21T19:14:51.049Z,6.10
2023-05-21T19:17:18.544Z,6.00
2023-05-21T19:19:45.981Z,6.47
2023-05-21T19:22:13.723Z,6.13
2023-05-21T19:24:41.836Z,7.07
2023-05-21T19:27:09.114Z,6.35
2023-05-21T19:29:36.721Z,7.05
2023-05-21T19:32:04.291Z,7.60
2023-05-21T19:34:31.635Z,6.60
2023-05-21T19:36:59.305Z,7.22
2023-05-21T19:39:26.600Z,6.53
2023-05-21T19:41:54.002Z,7.22
2023-05-21T19:44:21.298Z,7.50
2023-05-21T19:46:49.969Z,7.18
2023-05-21T19:49:17.584Z,6.75
2023-05-21T19:51:44.998Z,6.53
2023-05-21T19:54:12.304Z,6.38
2023-05-21T19:56:40.052Z,6.28
2023-05-21T19:59:07.487Z,6.00
2023-05-21T20:01:39.273Z,6.13
2023-05-21T20:04:06.938Z,5.65
2023-05-21T20:06:34.251Z,5.70
2023-05-21T20:09:01.612Z,5.50
2023-05-21T20:11:29.143Z,4.68
2023-05-21T20:13:57.319Z,3.47
2023-05-21T20:16:26.606Z,3.20
2023-05-21T20:18:57.033Z,3.30
2023-05-21T20:21:24.476Z,2.97
2023-05-21T20:23:51.800Z,2.90
2023-05-21T20:26:19.120Z,2.97
2023-05-21T20:28:46.390Z,2.63
2023-05-21T20:31:13.844Z,2.90
2023-05-21T20:33:41.384Z,3.08
2023-05-21T20:36:08.745Z,2.85
2023-05-21T20:38:38.118Z,2.90
2023-05-21T20:41:05.583Z,2.97
2023-05-21T20:43:33.750Z,3.00
2023-05-21T20:46:01.741Z,3.47
2023-05-21T20:48:29.704Z,4.20
2023-05-21T20:51:05.934Z,3.85
2023-05-21T20:53:33.787Z,3.90
2023-05-21T20:56:01.730Z,3.97
2023-05-21T20:58:29.191Z,3.58
2023-05-21T21:00:56.585Z,4.28
2023-05-21T21:03:23.934Z,4.40
2023-05-21T21:05:52.853Z,4.05
2023-05-21T21:08:20.484Z,4.25
2023-05-21T21:10:47.821Z,3.78
2023-05-21T21:13:15.426Z,3.50
2023-05-21T21:15:43.875Z,3.17
2023-05-21T21:18:12.598Z,3.60
2023-05-21T21:20:41.493Z,3.20
2023-05-21T21:23:09.077Z,3.58
2023-05-21T21:25:36.570Z,3.33
2023-05-21T21:28:04.035Z,3.38
2023-05-21T21:30:31.512Z,2.80
2023-05-21T21:32:58.852Z,3.17
2023-05-21T21:35:26.206Z,2.97
2023-05-21T21:37:53.625Z,3.17
2023-05-21T21:40:22.752Z,2.65
2023-05-21T21:42:50.107Z,3.08
2023-05-21T21:45:17.424Z,3.30
2023-05-21T21:47:44.879Z,2.70
2023-05-21T21:50:12.242Z,3.25
2023-05-21T21:52:42.608Z,3.00
2023-05-21T21:55:10.566Z,3.05
2023-05-21T21:57:38.844Z,3.38
2023-05-21T22:00:11.249Z,3.00
2023-05-21T22:02:40.233Z,2.53
2023-05-21T22:05:08.769Z,3.05
2023-05-21T22:07:38.653Z,2.47
2023-05-21T22:10:06.676Z,3.00
2023-05-21T22:12:34.691Z,2.13
2023-05-21T22:15:05.252Z,3.17
2023-05-21T22:17:34.100Z,2.97
2023-05-21T22:20:01.655Z,3.05
2023-05-21T22:22:29.181Z,2.70
2023-05-21T22:24:56.542Z,3.22
2023-05-21T22:27:23.831Z,2.85
2023-05-21T22:29:51.377Z,3.30
2023-05-21T22:32:19.546Z,3.08
2023-05-21T22:34:47.025Z,2.78
2023-05-21T22:37:14.299Z,3.10
2023-05-21T22:39:41.922Z,3.15
2023-05-21T22:42:09.413Z,2.95
2023-05-21T22:44:36.773Z,2.67
2023-05-21T22:47:04.248Z,3.60
2023-05-21T22:49:32.807Z,3.63
2023-05-21T22:52:05.118Z,3.30
2023-05-21T22:54:32.897Z,4.00
2023-05-21T22:57:01.161Z,4.10
2023-05-21T22:59:28.742Z,4.47
2023-05-21T23:01:56.093Z,3.90
2023-05-21T23:04:35.597Z,7.32
2023-05-21T23:07:10.298Z,4.90
2023-05-21T23:09:38.089Z,4.95
2023-05-21T23:12:05.936Z,4.97
2023-05-21T23:14:33.433Z,5.97
2023-05-21T23:17:01.931Z,6.50
2023-05-21T23:19:29.923Z,7.47
2023-05-21T23:21:57.423Z,8.35
2023-05-21T23:24:24.700Z,8.15
2023-05-21T23:26:52.511Z,8.02
2023-05-21T23:29:19.778Z,7.88
2023-05-21T23:31:47.512Z,8.23
2023-05-21T23:34:15.000Z,7.90
2023-05-21T23:36:42.302Z,6.70
2023-05-21T23:39:09.646Z,5.68
2023-05-21T23:41:37.300Z,5.88
2023-05-21T23:44:04.714Z,6.28
2023-05-21T23:46:32.203Z,5.70
2023-05-21T23:48:59.625Z,5.53
2023-05-21T23:51:26.977Z,5.43
2023-05-21T23:53:54.346Z,5.50
2023-05-21T23:56:21.799Z,5.40
2023-05-21T23:58:49.820Z,5.82
